createdAt,value
2022-09-22T00:01:30.773Z,7.50
2022-09-22T00:04:03.804Z,7.60
2022-09-22T00:06:47.680Z,6.93
2022-09-22T00:09:19.083Z,7.90
2022-09-22T00:11:52.191Z,7.33
2022-09-22T00:14:26.328Z,7.20
2022-09-22T00:17:01.313Z,7.97
2022-09-22T00:19:34.551Z,10.03
2022-09-22T00:22:01.925Z,9.43
2022-09-22T00:24:30.252Z,9.80
2022-09-22T00:26:59.713Z,10.03
2022-09-22T00:29:29.472Z,10.30
2022-09-22T00:31:57.891Z,12.40
2022-09-22T00:34:27.624Z,8.33
2022-09-22T00:36:56.361Z,10.87
2022-09-22T00:39:23.380Z,13.03
2022-09-22T00:41:53.078Z,9.57
2022-09-22T00:44:35.400Z,11.10
2022-09-22T00:47:36.874Z,7.37
2022-09-22T00:50:24.841Z,8.90
2022-09-22T00:53:04.902Z,7.00
2022-09-22T00:55:52.320Z,6.83
2022-09-22T00:58:24.078Z,6.77
2022-09-22T01:00:51.466Z,6.23
2022-09-22T01:03:25.095Z,6.50
2022-09-22T01:06:02.348Z,6.63
2022-09-22T01:08:31.612Z,6.23
2022-09-22T01:10:59.772Z,11.03
2022-09-22T01:13:53.950Z,6.27
2022-09-22T01:16:27.945Z,7.27
2022-09-22T01:19:32.439Z,8.30
2022-09-22T01:22:20.447Z,6.47
2022-09-22T01:25:18.838Z,6.77
2022-09-22T01:27:54.672Z,7.53
2022-09-22T01:31:03.360Z,7.30
2022-09-22T01:33:44.123Z,6.77
2022-09-22T01:36:20.102Z,11.00
2022-09-22T01:39:06.751Z,7.87
2022-09-22T01:41:47.010Z,8.10
2022-09-22T01:44:43.842Z,7.93
2022-09-22T01:47:40.987Z,8.63
2022-09-22T01:50:20.400Z,7.70
2022-09-22T01:52:48.373Z,7.43
2022-09-22T01:55:45.563Z,7.00
2022-09-22T01:58:26.523Z,8.57
2022-09-22T02:01:13.658Z,8.23
2022-09-22T02:03:46.433Z,8.10
2022-09-22T02:06:22.592Z,8.07
2022-09-22T02:09:13.309Z,7.73
2022-09-22T02:11:41.973Z,7.73
2022-09-22T02:14:09.564Z,7.23
2022-09-22T02:16:37.314Z,9.30
2022-09-22T02:19:30.810Z,7.53
2022-09-22T02:21:58.761Z,7.20
2022-09-22T02:24:46.595Z,7.20
2022-09-22T02:27:25.726Z,7.07
2022-09-22T02:30:12.207Z,8.93
2022-09-22T02:32:45.681Z,19.63
2022-09-22T02:35:13.790Z,17.17
2022-09-22T02:38:02.832Z,19.63
2022-09-22T02:40:37.120Z,10.97
2022-09-22T02:43:33.788Z,11.93
2022-09-22T02:46:16.555Z,8.53
2022-09-22T02:48:49.017Z,15.50
2022-09-22T02:51:18.593Z,8.53
2022-09-22T02:53:45.641Z,8.17
2022-09-22T02:56:12.934Z,8.10
2022-09-22T02:58:40.070Z,7.30
2022-09-22T03:01:07.108Z,7.43
2022-09-22T03:03:34.685Z,8.63
2022-09-22T03:06:01.644Z,14.30
2022-09-22T03:08:28.691Z,13.00
2022-09-22T03:10:55.752Z,11.77
2022-09-22T03:13:22.940Z,12.33
2022-09-22T03:15:50.026Z,8.63
2022-09-22T03:18:17.539Z,8.63
2022-09-22T03:20:45.402Z,9.83
2022-09-22T03:23:12.356Z,10.47
2022-09-22T03:25:39.652Z,7.77
2022-09-22T03:28:06.923Z,7.30
2022-09-22T03:30:36.145Z,8.43
2022-09-22T03:33:03.803Z,6.67
2022-09-22T03:35:30.832Z,8.10
2022-09-22T03:37:57.871Z,7.57
2022-09-22T03:40:25.138Z,7.10
2022-09-22T03:42:52.152Z,7.33
2022-09-22T03:45:19.422Z,10.23
2022-09-22T03:47:46.893Z,9.27
2022-09-22T03:50:14.314Z,7.80
2022-09-22T03:52:44.056Z,9.43
2022-09-22T03:55:11.960Z,10.77
2022-09-22T03:57:44.275Z,10.47
2022-09-22T04:00:14.207Z,11.27
2022-09-22T04:02:41.911Z,13.40
2022-09-22T04:05:11.198Z,9.90
2022-09-22T04:07:39.024Z,9.97
2022-09-22T04:10:06.333Z,10.40
2022-09-22T04:12:33.321Z,9.83
2022-09-22T04:15:00.373Z,9.27
2022-09-22T04:17:27.361Z,10.47
2022-09-22T04:19:55.444Z,9.87
2022-09-22T04:22:22.474Z,9.90
2022-09-22T04:24:49.454Z,11.10
2022-09-22T04:27:20.869Z,10.80
2022-09-22T04:29:48.975Z,10.70
2022-09-22T04:32:18.419Z,10.43
2022-09-22T04:34:45.812Z,10.87
2022-09-22T04:37:13.882Z,10.17
2022-09-22T04:39:41.084Z,11.23
2022-09-22T04:42:09.279Z,10.10
2022-09-22T04:44:36.312Z,8.57
2022-09-22T04:47:04.764Z,11.00
2022-09-22T04:49:31.807Z,12.57
2022-09-22T04:51:59.252Z,8.67
2022-09-22T04:54:26.336Z,10.80
2022-09-22T04:56:53.412Z,11.07
2022-09-22T04:59:20.400Z,15.50
2022-09-22T05:01:47.394Z,12.20
2022-09-22T05:04:14.611Z,9.33
2022-09-22T05:06:42.431Z,9.70
2022-09-22T05:09:09.822Z,11.33
2022-09-22T05:11:36.932Z,9.50
2022-09-22T05:14:03.873Z,11.37
2022-09-22T05:16:31.595Z,13.47
2022-09-22T05:18:58.982Z,15.23
2022-09-22T05:21:26.280Z,10.93
2022-09-22T05:23:54.598Z,9.43
2022-09-22T05:26:22.269Z,9.93
2022-09-22T05:28:51.465Z,9.07
2022-09-22T05:31:18.615Z,9.73
2022-09-22T05:33:46.193Z,10.83
2022-09-22T05:36:13.171Z,10.27
2022-09-22T05:38:40.482Z,9.90
2022-09-22T05:41:08.403Z,11.00
2022-09-22T05:43:35.410Z,9.77
2022-09-22T05:46:02.413Z,10.83
2022-09-22T05:48:31.392Z,15.60
2022-09-22T05:50:59.406Z,12.60
2022-09-22T05:53:26.522Z,12.73
2022-09-22T05:55:54.053Z,12.60
2022-09-22T05:58:20.971Z,11.10
2022-09-22T06:00:48.067Z,14.30
2022-09-22T06:03:15.326Z,13.40
2022-09-22T06:05:45.135Z,14.83
2022-09-22T06:08:12.160Z,9.00
2022-09-22T06:10:39.872Z,10.03
2022-09-22T06:13:10.574Z,9.47
2022-09-22T06:15:39.083Z,8.47
2022-09-22T06:18:14.658Z,10.77
2022-09-22T06:20:43.709Z,7.93
2022-09-22T06:23:13.823Z,8.17
2022-09-22T06:25:41.120Z,10.03
2022-09-22T06:28:12.052Z,9.80
2022-09-22T06:30:40.485Z,7.70
2022-09-22T06:33:10.381Z,8.60
2022-09-22T06:35:38.187Z,9.07
2022-09-22T06:38:09.568Z,9.03
2022-09-22T06:40:36.768Z,9.13
2022-09-22T06:43:10.263Z,7.17
2022-09-22T06:45:37.361Z,7.43
2022-09-22T06:48:09.551Z,7.73
2022-09-22T06:50:38.378Z,6.60
2022-09-22T06:53:11.484Z,6.90
2022-09-22T06:55:41.712Z,13.93
2022-09-22T06:58:09.872Z,8.40
2022-09-22T07:00:37.326Z,7.73
2022-09-22T07:03:20.968Z,6.47
2022-09-22T07:06:02.714Z,9.83
2022-09-22T07:08:33.434Z,6.40
2022-09-22T07:11:10.170Z,7.00
2022-09-22T07:13:42.834Z,6.43
2022-09-22T07:16:17.798Z,6.07
2022-09-22T07:18:49.783Z,5.73
2022-09-22T07:21:25.071Z,5.60
2022-09-22T07:23:55.650Z,5.67
2022-09-22T07:26:30.903Z,5.43
2022-09-22T07:29:01.803Z,8.90
2022-09-22T07:31:32.195Z,5.60
2022-09-22T07:34:02.518Z,6.20
2022-09-22T07:36:32.914Z,5.13
2022-09-22T07:39:08.320Z,8.20
2022-09-22T07:41:41.939Z,5.03
2022-09-22T07:44:30.148Z,4.50
2022-09-22T07:46:58.456Z,5.40
2022-09-22T07:49:27.278Z,7.90
2022-09-22T07:51:57.820Z,5.53
2022-09-22T07:54:27.319Z,5.50
2022-09-22T07:57:10.518Z,5.47
2022-09-22T07:59:39.351Z,4.40
2022-09-22T08:02:06.897Z,5.47
2022-09-22T08:04:35.500Z,5.40
2022-09-22T08:07:03.330Z,5.17
2022-09-22T08:09:33.655Z,4.83
2022-09-22T08:12:01.575Z,5.13
2022-09-22T08:14:29.983Z,4.77
2022-09-22T08:16:57.540Z,4.20
2022-09-22T08:19:24.633Z,5.10
2022-09-22T08:21:54.550Z,4.17
2022-09-22T08:24:23.114Z,4.40
2022-09-22T08:26:52.930Z,4.53
2022-09-22T08:29:21.254Z,5.70
2022-09-22T08:31:49.641Z,4.10
2022-09-22T08:34:18.180Z,4.93
2022-09-22T08:36:48.961Z,5.20
2022-09-22T08:39:18.182Z,4.97
2022-09-22T08:42:18.561Z,4.63
2022-09-22T08:45:26.974Z,4.63
2022-09-22T08:48:23.302Z,6.87
2022-09-22T08:51:12.180Z,4.10
2022-09-22T08:53:49.010Z,7.83
2022-09-22T08:56:29.450Z,4.40
2022-09-22T08:59:09.240Z,4.67
2022-09-22T09:02:19.318Z,5.13
2022-09-22T09:05:04.600Z,6.47
2022-09-22T09:07:46.652Z,5.50
2022-09-22T09:10:33.191Z,4.97
2022-09-22T09:13:31.751Z,4.57
2022-09-22T09:16:35.609Z,5.77
2022-09-22T09:19:26.120Z,4.77
2022-09-22T09:22:00.290Z,5.23
2022-09-22T09:27:29.039Z,5.10
2022-09-22T09:30:46.516Z,5.70
2022-09-22T09:33:44.981Z,5.33
2022-09-22T09:36:18.025Z,5.70
2022-09-22T09:38:52.522Z,8.30
2022-09-22T09:41:41.695Z,5.03
2022-09-22T09:44:20.390Z,5.27
2022-09-22T09:47:27.622Z,4.00
2022-09-22T09:49:55.233Z,4.63
2022-09-22T09:52:28.105Z,6.70
2022-09-22T09:54:55.081Z,4.50
2022-09-22T09:57:31.103Z,3.93
2022-09-22T10:00:34.472Z,7.13
2022-09-22T10:03:16.728Z,5.10
2022-09-22T10:05:43.819Z,5.20
2022-09-22T10:08:23.255Z,4.23
2022-09-22T10:10:58.502Z,3.70
2022-09-22T10:13:38.365Z,4.03
2022-09-22T10:16:24.452Z,3.83
2022-09-22T10:19:10.749Z,4.03
2022-09-22T10:21:37.834Z,4.03
2022-09-22T10:24:31.669Z,4.00
2022-09-22T10:27:02.379Z,3.33
2022-09-22T10:29:32.751Z,3.40
2022-09-22T10:32:05.626Z,3.23
2022-09-22T10:37:15.651Z,2.33
2022-09-22T10:39:54.627Z,3.13
2022-09-22T10:42:37.873Z,3.60
2022-09-22T10:45:19.548Z,2.30
2022-09-22T10:47:52.472Z,2.70
2022-09-22T10:51:02.522Z,3.03
2022-09-22T10:54:06.684Z,2.77
2022-09-22T10:56:34.645Z,3.20
2022-09-22T10:59:25.848Z,3.30
2022-09-22T11:02:30.362Z,2.70
2022-09-22T11:05:18.360Z,3.73
2022-09-22T11:08:30.211Z,4.03
2022-09-22T11:11:27.438Z,2.37
2022-09-22T11:14:26.065Z,2.23
2022-09-22T11:17:31.502Z,2.40
2022-09-22T11:20:07.720Z,1.80
2022-09-22T11:23:30.750Z,1.60
2022-09-22T11:26:48.590Z,1.90
2022-09-22T11:30:11.676Z,2.27
2022-09-22T11:33:10.154Z,2.07
2022-09-22T11:35:59.320Z,1.50
2022-09-22T11:38:42.420Z,1.43
2022-09-22T11:41:26.370Z,1.90
2022-09-22T11:44:06.966Z,2.80
2022-09-22T11:46:55.315Z,1.87
2022-09-22T11:49:37.331Z,2.13
2022-09-22T11:52:47.679Z,2.20
2022-09-22T11:55:43.900Z,2.07
2022-09-22T11:58:20.921Z,2.10
2022-09-22T12:01:07.499Z,2.67
2022-09-22T12:03:46.422Z,3.07
2022-09-22T12:06:19.633Z,2.73
2022-09-22T12:11:27.729Z,3.80
2022-09-22T12:13:57.393Z,3.07
2022-09-22T12:16:42.683Z,2.67
2022-09-22T12:19:35.250Z,3.37
2022-09-22T12:22:49.879Z,3.53
2022-09-22T12:25:56.841Z,3.20
2022-09-22T12:28:28.203Z,3.40
2022-09-22T12:31:06.812Z,2.93
2022-09-22T12:33:37.152Z,3.37
2022-09-22T12:36:05.708Z,3.03
2022-09-22T12:38:33.451Z,3.07
2022-09-22T12:41:04.564Z,3.00
2022-09-22T12:43:34.454Z,4.40
2022-09-22T12:46:22.606Z,3.37
2022-09-22T12:48:49.840Z,3.30
2022-09-22T12:51:25.630Z,2.93
2022-09-22T12:54:27.552Z,3.17
2022-09-22T12:57:21.164Z,1.80
2022-09-22T13:00:25.030Z,3.13
2022-09-22T13:02:54.721Z,2.20
2022-09-22T13:05:24.669Z,2.73
2022-09-22T13:07:56.210Z,8.93
2022-09-22T13:10:23.222Z,3.93
2022-09-22T13:13:06.033Z,2.93
2022-09-22T13:15:51.954Z,2.97
2022-09-22T13:18:37.730Z,2.30
2022-09-22T13:21:13.655Z,2.50
2022-09-22T13:23:49.844Z,2.53
2022-09-22T13:26:21.229Z,2.33
2022-09-22T13:29:06.078Z,2.20
2022-09-22T13:31:58.061Z,2.43
2022-09-22T13:34:37.326Z,2.50
2022-09-22T13:37:12.480Z,3.23
2022-09-22T13:39:47.779Z,2.93
2022-09-22T13:42:23.152Z,4.90
2022-09-22T13:45:03.319Z,6.43
2022-09-22T13:47:30.788Z,2.90
2022-09-22T13:50:08.480Z,3.10
2022-09-22T13:52:38.691Z,3.20
2022-09-22T13:55:35.453Z,6.10
2022-09-22T13:58:04.199Z,2.87
2022-09-22T14:01:08.599Z,2.90
2022-09-22T14:03:38.226Z,2.70
2022-09-22T14:06:12.879Z,2.77
2022-09-22T14:08:40.810Z,3.53
2022-09-22T14:11:15.741Z,2.63
2022-09-22T14:14:03.610Z,2.97
2022-09-22T14:17:05.965Z,2.70
2022-09-22T14:19:45.070Z,2.10
2022-09-22T14:22:26.283Z,2.20
2022-09-22T14:25:00.440Z,2.50
2022-09-22T14:27:52.214Z,2.20
2022-09-22T14:30:20.339Z,2.03
2022-09-22T14:32:52.531Z,2.20
2022-09-22T14:35:36.522Z,2.30
2022-09-22T14:38:17.529Z,2.47
2022-09-22T14:40:56.352Z,2.13
2022-09-22T14:43:37.318Z,2.53
2022-09-22T14:46:41.500Z,2.30
2022-09-22T14:49:40.794Z,2.00
2022-09-22T14:52:30.847Z,1.93
2022-09-22T14:55:08.364Z,2.20
2022-09-22T14:57:36.204Z,5.87
2022-09-22T15:00:23.033Z,15.40
2022-09-22T15:02:53.481Z,6.70
2022-09-22T15:05:30.658Z,2.50
2022-09-22T15:07:58.813Z,3.40
2022-09-22T15:10:32.214Z,2.50
2022-09-22T15:13:29.925Z,2.90
2022-09-22T15:15:57.883Z,2.80
2022-09-22T15:18:29.829Z,2.80
2022-09-22T15:21:29.378Z,2.33
2022-09-22T15:24:00.410Z,2.70
2022-09-22T15:26:31.451Z,2.53
2022-09-22T15:29:02.839Z,2.27
2022-09-22T15:31:30.264Z,3.47
2022-09-22T15:34:01.569Z,2.27
2022-09-22T15:36:32.280Z,1.80
2022-09-22T15:39:20.710Z,2.10
2022-09-22T15:41:51.301Z,1.90
2022-09-22T15:44:18.670Z,1.97
2022-09-22T15:46:54.248Z,2.00
2022-09-22T15:49:26.472Z,3.07
2022-09-22T15:51:57.672Z,2.80
2022-09-22T15:54:26.872Z,3.53
2022-09-22T15:56:57.412Z,2.10
2022-09-22T15:59:28.628Z,2.00
2022-09-22T16:01:57.616Z,2.27
2022-09-22T16:04:32.615Z,2.27
2022-09-22T16:07:05.244Z,3.03
2022-09-22T16:09:32.957Z,2.80
2022-09-22T16:12:00.187Z,2.83
2022-09-22T16:14:27.158Z,3.00
2022-09-22T16:16:54.386Z,3.60
2022-09-22T16:19:21.429Z,3.90
2022-09-22T16:21:54.388Z,2.63
2022-09-22T16:28:10.662Z,2.57
2022-09-22T16:31:46.232Z,3.03
2022-09-22T16:34:16.863Z,2.60
2022-09-22T16:36:59.424Z,3.00
2022-09-22T16:39:27.024Z,3.30
2022-09-22T16:41:54.180Z,3.40
2022-09-22T16:44:22.541Z,3.20
2022-09-22T16:46:49.580Z,2.90
2022-09-22T16:49:17.559Z,3.37
2022-09-22T16:51:50.902Z,3.40
2022-09-22T16:54:19.677Z,4.63
2022-09-22T16:56:49.830Z,4.30
2022-09-22T16:59:19.870Z,3.87
2022-09-22T17:01:47.047Z,3.87
2022-09-22T17:04:17.119Z,2.90
2022-09-22T17:06:44.489Z,3.83
2022-09-22T17:09:14.896Z,4.30
2022-09-22T17:11:45.748Z,3.87
2022-09-22T17:14:16.559Z,3.90
2022-09-22T17:16:52.317Z,4.20
2022-09-22T17:19:27.843Z,4.33
2022-09-22T17:21:56.829Z,3.93
2022-09-22T17:24:26.736Z,4.87
2022-09-22T17:26:57.999Z,3.87
2022-09-22T17:29:28.747Z,5.80
2022-09-22T17:32:05.949Z,4.23
2022-09-22T17:34:34.498Z,6.37
2022-09-22T17:37:03.456Z,7.57
2022-09-22T17:39:32.098Z,8.10
2022-09-22T17:41:59.488Z,7.30
2022-09-22T17:44:28.897Z,7.83
2022-09-22T17:47:14.750Z,8.73
2022-09-22T17:49:59.886Z,6.60
2022-09-22T17:52:30.055Z,6.70
2022-09-22T17:55:09.407Z,6.73
2022-09-22T17:57:40.598Z,6.37
2022-09-22T18:00:12.542Z,5.47
2022-09-22T18:02:40.032Z,6.80
2022-09-22T18:05:11.904Z,7.50
2022-09-22T18:07:40.531Z,7.20
2022-09-22T18:10:14.465Z,10.47
2022-09-22T18:12:42.525Z,10.43
2022-09-22T18:15:13.502Z,11.23
2022-09-22T18:17:42.919Z,8.97
2022-09-22T18:20:18.244Z,8.90
2022-09-22T18:22:48.354Z,8.70
2022-09-22T18:25:19.518Z,9.77
2022-09-22T18:27:48.646Z,9.93
2022-09-22T18:30:19.548Z,9.17
2022-09-22T18:32:48.381Z,9.47
2022-09-22T18:35:15.984Z,8.53
2022-09-22T18:37:43.244Z,8.90
2022-09-22T18:40:20.057Z,12.17
2022-09-22T18:42:52.752Z,8.07
2022-09-22T18:45:23.695Z,8.37
2022-09-22T18:47:54.425Z,8.33
2022-09-22T18:50:29.529Z,10.40
2022-09-22T18:52:58.340Z,7.50
2022-09-22T18:55:29.227Z,8.37
2022-09-22T18:57:59.974Z,16.13
2022-09-22T19:00:28.904Z,9.60
2022-09-22T19:03:06.428Z,11.13
2022-09-22T19:05:34.860Z,9.87
2022-09-22T19:08:03.271Z,11.00
2022-09-22T19:10:39.365Z,10.90
2022-09-22T19:13:23.382Z,10.67
2022-09-22T19:15:58.020Z,10.13
2022-09-22T19:18:29.015Z,12.63
2022-09-22T19:20:56.516Z,13.17
2022-09-22T19:23:25.730Z,11.83
2022-09-22T19:25:52.682Z,10.30
2022-09-22T19:28:21.998Z,10.47
2022-09-22T19:30:50.213Z,10.90
2022-09-22T19:33:18.541Z,10.77
2022-09-22T19:35:48.287Z,12.13
2022-09-22T19:38:18.145Z,13.00
2022-09-22T19:40:47.338Z,11.53
2022-09-22T19:43:18.203Z,13.37
2022-09-22T19:45:46.107Z,14.93
2022-09-22T19:48:14.986Z,14.77
2022-09-22T19:50:43.119Z,16.37
2022-09-22T19:53:11.931Z,16.63
2022-09-22T19:55:40.209Z,18.80
2022-09-22T19:58:09.586Z,19.60
2022-09-22T20:00:37.880Z,21.23
2022-09-22T20:03:06.018Z,11.27
2022-09-22T20:05:37.642Z,11.10
2022-09-22T20:08:09.088Z,10.37
2022-09-22T20:10:37.571Z,11.67
2022-09-22T20:13:25.341Z,10.00
2022-09-22T20:15:53.453Z,10.50
2022-09-22T20:18:21.970Z,11.43
2022-09-22T20:20:54.611Z,10.67
2022-09-22T20:23:22.941Z,10.70
2022-09-22T20:25:51.942Z,11.03
2022-09-22T20:28:18.865Z,11.80
2022-09-22T20:30:45.831Z,13.53
2022-09-22T20:33:24.351Z,16.60
2022-09-22T20:35:55.728Z,12.30
2022-09-22T20:38:22.772Z,13.30
2022-09-22T20:40:49.963Z,12.23
2022-09-22T20:43:16.833Z,12.67
2022-09-22T20:45:44.632Z,12.17
2022-09-22T20:48:20.598Z,14.37
2022-09-22T20:50:58.378Z,13.67
2022-09-22T20:53:25.423Z,13.93
2022-09-22T20:56:18.750Z,12.50
2022-09-22T20:58:46.912Z,13.60
2022-09-22T21:01:16.322Z,16.20
2022-09-22T21:03:44.191Z,12.93
2022-09-22T21:06:12.941Z,14.57
2022-09-22T21:09:02.763Z,16.83
2022-09-22T21:11:31.069Z,13.40
2022-09-22T21:14:02.531Z,12.47
2022-09-22T21:16:30.953Z,14.37
2022-09-22T21:19:02.600Z,13.30
2022-09-22T21:21:38.409Z,14.13
2022-09-22T21:24:05.832Z,13.90
2022-09-22T21:26:33.860Z,12.20
2022-09-22T21:29:01.078Z,12.67
2022-09-22T21:31:29.029Z,11.30
2022-09-22T21:33:56.132Z,13.77
2022-09-22T21:36:24.507Z,12.63
2022-09-22T21:38:57.722Z,11.20
2022-09-22T21:41:27.748Z,10.63
2022-09-22T21:43:55.302Z,11.70
2022-09-22T21:46:26.544Z,10.97
2022-09-22T21:49:01.891Z,11.60
2022-09-22T21:51:39.457Z,11.67
2022-09-22T21:54:07.452Z,11.63
2022-09-22T21:56:35.659Z,9.70
2022-09-22T21:59:03.741Z,12.90
2022-09-22T22:01:37.428Z,11.50
2022-09-22T22:04:08.982Z,11.97
2022-09-22T22:06:43.301Z,10.20
2022-09-22T22:09:14.783Z,11.30
2022-09-22T22:11:44.089Z,11.43
2022-09-22T22:14:14.022Z,11.77
2022-09-22T22:16:48.288Z,11.93
2022-09-22T22:19:20.347Z,12.30
2022-09-22T22:21:50.992Z,12.50
2022-09-22T22:24:24.915Z,12.13
2022-09-22T22:27:02.066Z,11.27
2022-09-22T22:29:34.953Z,10.80
2022-09-22T22:32:04.213Z,10.67
2022-09-22T22:34:31.212Z,10.57
2022-09-22T22:36:59.084Z,10.27
2022-09-22T22:39:26.867Z,10.73
2022-09-22T22:41:56.932Z,11.97
2022-09-22T22:44:23.980Z,11.30
2022-09-22T22:46:51.382Z,13.77
2022-09-22T22:49:19.499Z,12.33
2022-09-22T22:51:46.544Z,11.27
2022-09-22T22:54:14.565Z,10.00
2022-09-22T22:56:43.794Z,12.10
2022-09-22T22:59:12.974Z,11.73
2022-09-22T23:01:41.081Z,11.63
2022-09-22T23:04:10.680Z,12.23
2022-09-22T23:06:44.575Z,11.60
2022-09-22T23:09:16.200Z,12.17
2022-09-22T23:11:45.860Z,12.93
2022-09-22T23:14:13.361Z,15.67
2022-09-22T23:16:46.807Z,12.17
2022-09-22T23:19:17.393Z,13.33
2022-09-22T23:21:45.732Z,12.63
2022-09-22T23:24:19.181Z,11.10
2022-09-22T23:26:47.234Z,11.50
2022-09-22T23:29:14.673Z,12.03
2022-09-22T23:31:42.270Z,13.70
2022-09-22T23:34:09.561Z,11.30
2022-09-22T23:36:36.699Z,11.80
2022-09-22T23:39:05.209Z,12.73
2022-09-22T23:41:35.492Z,11.73
2022-09-22T23:44:04.050Z,13.00
2022-09-22T23:46:32.007Z,13.37
2022-09-22T23:49:00.586Z,11.90
2022-09-22T23:51:28.534Z,12.40
2022-09-22T23:53:56.545Z,11.37
2022-09-22T23:56:24.392Z,12.73
2022-09-22T23:58:52.532Z,10.80
